sensor_id;sensor_type;location;lat;lon;timestamp;temperature;humidity
3919;DHT22;1974;48.670;8.994;2023-05-07T00:02:14;14.30;99.90
3919;DHT22;1974;48.670;8.994;2023-05-07T00:04:40;14.20;99.90
3919;DHT22;1974;48.670;8.994;2023-05-07T00:07:07;14.20;99.90
3919;DHT22;1974;48.670;8.994;2023-05-07T00:09:36;14.10;99.90
3919;DHT22;1974;48.670;8.994;2023-05-07T00:12:03;14.10;99.90
3919;DHT22;1974;48.670;8.994;2023-05-07T00:14:30;14.10;99.90
3919;DHT22;1974;48.670;8.994;2023-05-07T00:16:57;14.10;99.90
3919;DHT22;1974;48.670;8.994;2023-05-07T00:19:24;14.10;99.90
3919;DHT22;1974;48.670;8.994;2023-05-07T00:21:50;14.10;99.90
3919;DHT22;1974;48.670;8.994;2023-05-07T00:24:19;14.00;99.90
3919;DHT22;1974;48.670;8.994;2023-05-07T00:26:47;14.00;99.90
3919;DHT22;1974;48.670;8.994;2023-05-07T00:29:13;14.00;99.90
3919;DHT22;1974;48.670;8.994;2023-05-07T00:31:40;14.00;99.90
3919;DHT22;1974;48.670;8.994;2023-05-07T00:34:07;14.00;99.90
3919;DHT22;1974;48.670;8.994;2023-05-07T00:36:34;14.00;99.90
3919;DHT22;1974;48.670;8.994;2023-05-07T00:39:01;14.00;99.90
3919;DHT22;1974;48.670;8.994;2023-05-07T00:41:29;13.90;99.90
3919;DHT22;1974;48.670;8.994;2023-05-07T00:43:58;13.90;99.90
3919;DHT22;1974;48.670;8.994;2023-05-07T00:46:25;13.90;99.90
3919;DHT22;1974;48.670;8.994;2023-05-07T00:48:52;13.90;99.90
3919;DHT22;1974;48.670;8.994;2023-05-07T00:51:20;13.90;99.90
3919;DHT22;1974;48.670;8.994;2023-05-07T00:53:46;13.90;99.90
3919;DHT22;1974;48.670;8.994;2023-05-07T00:56:13;13.80;99.90
3919;DHT22;1974;48.670;8.994;2023-05-07T00:58:41;13.80;99.90
3919;DHT22;1974;48.670;8.994;2023-05-07T01:01:09;13.80;99.90
3919;DHT22;1974;48.670;8.994;2023-05-07T01:03:36;13.80;99.90
3919;DHT22;1974;48.670;8.994;2023-05-07T01:06:03;13.80;99.90
3919;DHT22;1974;48.670;8.994;2023-05-07T01:08:32;13.80;99.90
3919;DHT22;1974;48.670;8.994;2023-05-07T01:11:00;13.80;99.90
3919;DHT22;1974;48.670;8.994;2023-05-07T01:13:27;13.80;99.90
3919;DHT22;1974;48.670;8.994;2023-05-07T01:15:54;13.80;99.90
3919;DHT22;1974;48.670;8.994;2023-05-07T01:18:22;13.80;99.90
3919;DHT22;1974;48.670;8.994;2023-05-07T01:20:51;13.80;99.90
3919;DHT22;1974;48.670;8.994;2023-05-07T01:23:19;13.80;99.90
3919;DHT22;1974;48.670;8.994;2023-05-07T01:25:51;13.80;99.90
3919;DHT22;1974;48.670;8.994;2023-05-07T01:28:18;13.70;99.90
3919;DHT22;1974;48.670;8.994;2023-05-07T01:30:46;13.70;99.90
3919;DHT22;1974;48.670;8.994;2023-05-07T01:33:15;13.70;99.90
3919;DHT22;1974;48.670;8.994;2023-05-07T01:35:48;13.70;99.90
3919;DHT22;1974;48.670;8.994;2023-05-07T01:38:16;13.70;99.90
3919;DHT22;1974;48.670;8.994;2023-05-07T01:40:46;13.60;99.90
3919;DHT22;1974;48.670;8.994;2023-05-07T01:43:12;13.60;99.90
3919;DHT22;1974;48.670;8.994;2023-05-07T01:45:40;13.60;99.90
3919;DHT22;1974;48.670;8.994;2023-05-07T01:48:09;13.60;99.90
3919;DHT22;1974;48.670;8.994;2023-05-07T01:50:36;13.60;99.90
3919;DHT22;1974;48.670;8.994;2023-05-07T01:53:03;13.60;99.90
3919;DHT22;1974;48.670;8.994;2023-05-07T01:55:30;13.60;99.90
3919;DHT22;1974;48.670;8.994;2023-05-07T01:57:58;13.50;99.90
3919;DHT22;1974;48.670;8.994;2023-05-07T02:00:25;13.50;99.90
3919;DHT22;1974;48.670;8.994;2023-05-07T02:02:52;13.40;99.90
3919;DHT22;1974;48.670;8.994;2023-05-07T02:05:19;13.40;99.90
3919;DHT22;1974;48.670;8.994;2023-05-07T02:07:46;13.40;99.90
3919;DHT22;1974;48.670;8.994;2023-05-07T02:10:13;13.40;99.90
3919;DHT22;1974;48.670;8.994;2023-05-07T02:12:39;13.40;99.90
3919;DHT22;1974;48.670;8.994;2023-05-07T02:15:08;13.30;99.90
3919;DHT22;1974;48.670;8.994;2023-05-07T02:17:38;13.30;99.90
3919;DHT22;1974;48.670;8.994;2023-05-07T02:20:06;13.40;99.90
3919;DHT22;1974;48.670;8.994;2023-05-07T02:22:38;13.30;99.90
3919;DHT22;1974;48.670;8.994;2023-05-07T02:25:05;13.30;99.90
3919;DHT22;1974;48.670;8.994;2023-05-07T02:27:32;13.30;99.90
3919;DHT22;1974;48.670;8.994;2023-05-07T02:29:59;13.30;99.90
3919;DHT22;1974;48.670;8.994;2023-05-07T02:32:27;13.20;99.90
3919;DHT22;1974;48.670;8.994;2023-05-07T02:34:53;13.20;99.90
3919;DHT22;1974;48.670;8.994;2023-05-07T02:37:20;13.20;99.90
3919;DHT22;1974;48.670;8.994;2023-05-07T02:39:47;13.20;99.90
3919;DHT22;1974;48.670;8.994;2023-05-07T02:42:13;13.20;99.90
3919;DHT22;1974;48.670;8.994;2023-05-07T02:44:40;13.10;99.90
3919;DHT22;1974;48.670;8.994;2023-05-07T02:47:07;13.10;99.90
3919;DHT22;1974;48.670;8.994;2023-05-07T02:49:36;13.00;99.90
3919;DHT22;1974;48.670;8.994;2023-05-07T02:52:03;13.00;99.90
3919;DHT22;1974;48.670;8.994;2023-05-07T02:54:29;12.90;99.90
3919;DHT22;1974;48.670;8.994;2023-05-07T02:56:56;12.90;99.90
3919;DHT22;1974;48.670;8.994;2023-05-07T02:59:23;12.80;99.90
3919;DHT22;1974;48.670;8.994;2023-05-07T03:01:51;12.90;99.90
3919;DHT22;1974;48.670;8.994;2023-05-07T03:04:18;12.80;99.90
3919;DHT22;1974;48.670;8.994;2023-05-07T03:06:47;12.80;99.90
3919;DHT22;1974;48.670;8.994;2023-05-07T03:09:13;12.80;99.90
3919;DHT22;1974;48.670;8.994;2023-05-07T03:11:40;12.70;99.90
3919;DHT22;1974;48.670;8.994;2023-05-07T03:14:07;12.70;99.90
3919;DHT22;1974;48.670;8.994;2023-05-07T03:16:34;12.70;99.90
3919;DHT22;1974;48.670;8.994;2023-05-07T03:19:00;12.60;99.90
3919;DHT22;1974;48.670;8.994;2023-05-07T03:21:27;12.60;99.90
3919;DHT22;1974;48.670;8.994;2023-05-07T03:23:55;12.60;99.90
3919;DHT22;1974;48.670;8.994;2023-05-07T03:26:22;12.60;99.90
3919;DHT22;1974;48.670;8.994;2023-05-07T03:28:48;12.60;99.90
3919;DHT22;1974;48.670;8.994;2023-05-07T03:31:15;12.50;99.90
3919;DHT22;1974;48.670;8.994;2023-05-07T03:33:50;12.50;99.90
3919;DHT22;1974;48.670;8.994;2023-05-07T03:36:17;12.60;99.90
3919;DHT22;1974;48.670;8.994;2023-05-07T03:38:44;12.60;99.90
3919;DHT22;1974;48.670;8.994;2023-05-07T03:41:12;12.60;99.90
3919;DHT22;1974;48.670;8.994;2023-05-07T03:43:39;12.60;99.90
3919;DHT22;1974;48.670;8.994;2023-05-07T03:46:05;12.60;99.90
3919;DHT22;1974;48.670;8.994;2023-05-07T03:48:32;12.60;99.90
3919;DHT22;1974;48.670;8.994;2023-05-07T03:50:59;12.60;99.90
3919;DHT22;1974;48.670;8.994;2023-05-07T03:53:26;12.50;99.90
3919;DHT22;1974;48.670;8.994;2023-05-07T03:55:52;12.50;99.90
3919;DHT22;1974;48.670;8.994;2023-05-07T03:58:20;12.50;99.90
3919;DHT22;1974;48.670;8.994;2023-05-07T04:00:47;12.50;99.90
3919;DHT22;1974;48.670;8.994;2023-05-07T04:03:14;12.50;99.90
3919;DHT22;1974;48.670;8.994;2023-05-07T04:05:40;12.50;99.90
3919;DHT22;1974;48.670;8.994;2023-05-07T04:08:07;12.50;99.90
3919;DHT22;1974;48.670;8.994;2023-05-07T04:10:34;12.50;99.90
3919;DHT22;1974;48.670;8.994;2023-05-07T04:13:01;12.50;99.90
3919;DHT22;1974;48.670;8.994;2023-05-07T04:15:29;12.40;99.90
3919;DHT22;1974;48.670;8.994;2023-05-07T04:17:56;12.40;99.90
3919;DHT22;1974;48.670;8.994;2023-05-07T04:20:23;12.40;99.90
3919;DHT22;1974;48.670;8.994;2023-05-07T04:22:50;12.40;99.90
3919;DHT22;1974;48.670;8.994;2023-05-07T04:25:16;12.40;99.90
3919;DHT22;1974;48.670;8.994;2023-05-07T04:27:44;12.50;99.90
3919;DHT22;1974;48.670;8.994;2023-05-07T04:30:11;12.50;99.90
3919;DHT22;1974;48.670;8.994;2023-05-07T04:32:40;12.50;99.90
3919;DHT22;1974;48.670;8.994;2023-05-07T04:35:07;12.50;99.90
3919;DHT22;1974;48.670;8.994;2023-05-07T04:37:34;12.50;99.90
3919;DHT22;1974;48.670;8.994;2023-05-07T04:40:01;12.50;99.90
3919;DHT22;1974;48.670;8.994;2023-05-07T04:42:28;12.40;99.90
3919;DHT22;1974;48.670;8.994;2023-05-07T04:44:55;12.40;99.90
3919;DHT22;1974;48.670;8.994;2023-05-07T04:47:22;12.40;99.90
3919;DHT22;1974;48.670;8.994;2023-05-07T04:49:50;12.40;99.90
3919;DHT22;1974;48.670;8.994;2023-05-07T04:52:17;12.40;99.90
3919;DHT22;1974;48.670;8.994;2023-05-07T04:54:43;12.40;99.90
3919;DHT22;1974;48.670;8.994;2023-05-07T04:57:10;12.50;99.90
3919;DHT22;1974;48.670;8.994;2023-05-07T04:59:37;12.50;99.90
3919;DHT22;1974;48.670;8.994;2023-05-07T05:02:03;12.60;99.90
3919;DHT22;1974;48.670;8.994;2023-05-07T05:04:30;12.70;99.90
3919;DHT22;1974;48.670;8.994;2023-05-07T05:06:59;12.80;99.90
3919;DHT22;1974;48.670;8.994;2023-05-07T05:09:26;12.80;99.90
3919;DHT22;1974;48.670;8.994;2023-05-07T05:11:52;12.90;99.90
3919;DHT22;1974;48.670;8.994;2023-05-07T05:14:19;13.00;99.90
3919;DHT22;1974;48.670;8.994;2023-05-07T05:16:46;13.10;99.90
3919;DHT22;1974;48.670;8.994;2023-05-07T05:19:12;13.30;99.90
3919;DHT22;1974;48.670;8.994;2023-05-07T05:21:39;13.40;99.90
3919;DHT22;1974;48.670;8.994;2023-05-07T05:24:07;13.60;99.90
3919;DHT22;1974;48.670;8.994;2023-05-07T05:26:34;13.80;99.90
3919;DHT22;1974;48.670;8.994;2023-05-07T05:29:01;14.00;99.90
3919;DHT22;1974;48.670;8.994;2023-05-07T05:31:28;14.10;99.90
3919;DHT22;1974;48.670;8.994;2023-05-07T05:33:55;14.10;99.90
3919;DHT22;1974;48.670;8.994;2023-05-07T05:36:22;14.20;99.90
3919;DHT22;1974;48.670;8.994;2023-05-07T05:38:48;14.20;99.90
3919;DHT22;1974;48.670;8.994;2023-05-07T05:41:16;14.30;99.90
3919;DHT22;1974;48.670;8.994;2023-05-07T05:43:43;14.30;99.90
3919;DHT22;1974;48.670;8.994;2023-05-07T05:46:10;14.30;99.90
3919;DHT22;1974;48.670;8.994;2023-05-07T05:48:37;14.40;99.90
3919;DHT22;1974;48.670;8.994;2023-05-07T05:51:04;14.40;99.90
3919;DHT22;1974;48.670;8.994;2023-05-07T05:53:31;14.50;99.90
3919;DHT22;1974;48.670;8.994;2023-05-07T05:55:57;14.70;99.90
3919;DHT22;1974;48.670;8.994;2023-05-07T05:58:26;15.10;99.90
3919;DHT22;1974;48.670;8.994;2023-05-07T06:00:52;15.40;99.90
3919;DHT22;1974;48.670;8.994;2023-05-07T06:03:20;15.70;99.90
3919;DHT22;1974;48.670;8.994;2023-05-07T06:05:46;16.10;99.90
3919;DHT22;1974;48.670;8.994;2023-05-07T06:08:13;16.50;99.90
3919;DHT22;1974;48.670;8.994;2023-05-07T06:10:40;16.80;99.90
3919;DHT22;1974;48.670;8.994;2023-05-07T06:13:07;17.10;99.90
3919;DHT22;1974;48.670;8.994;2023-05-07T06:15:35;17.20;99.90
3919;DHT22;1974;48.670;8.994;2023-05-07T06:18:02;17.40;99.90
3919;DHT22;1974;48.670;8.994;2023-05-07T06:20:28;17.80;99.90
3919;DHT22;1974;48.670;8.994;2023-05-07T06:22:55;18.20;99.90
3919;DHT22;1974;48.670;8.994;2023-05-07T06:25:22;18.60;99.90
3919;DHT22;1974;48.670;8.994;2023-05-07T06:27:48;19.10;99.90
3919;DHT22;1974;48.670;8.994;2023-05-07T06:30:15;19.30;99.90
3919;DHT22;1974;48.670;8.994;2023-05-07T06:32:43;19.40;99.90
3919;DHT22;1974;48.670;8.994;2023-05-07T06:35:10;19.60;99.90
3919;DHT22;1974;48.670;8.994;2023-05-07T06:37:37;19.60;99.90
3919;DHT22;1974;48.670;8.994;2023-05-07T06:40:06;19.40;99.90
3919;DHT22;1974;48.670;8.994;2023-05-07T06:42:33;19.20;99.90
3919;DHT22;1974;48.670;8.994;2023-05-07T06:45:00;19.30;99.90
3919;DHT22;1974;48.670;8.994;2023-05-07T06:47:26;19.50;99.90
3919;DHT22;1974;48.670;8.994;2023-05-07T06:49:54;19.90;99.90
3919;DHT22;1974;48.670;8.994;2023-05-07T06:52:21;20.10;99.90
3919;DHT22;1974;48.670;8.994;2023-05-07T06:54:48;20.20;99.90
3919;DHT22;1974;48.670;8.994;2023-05-07T06:57:14;20.70;99.90
3919;DHT22;1974;48.670;8.994;2023-05-07T06:59:41;21.50;99.90
3919;DHT22;1974;48.670;8.994;2023-05-07T07:02:08;22.10;99.90
3919;DHT22;1974;48.670;8.994;2023-05-07T07:04:35;22.50;99.90
3919;DHT22;1974;48.670;8.994;2023-05-07T07:07:03;22.90;99.90
3919;DHT22;1974;48.670;8.994;2023-05-07T07:09:29;23.30;99.90
3919;DHT22;1974;48.670;8.994;2023-05-07T07:11:56;23.70;99.90
3919;DHT22;1974;48.670;8.994;2023-05-07T07:14:23;24.40;99.90
3919;DHT22;1974;48.670;8.994;2023-05-07T07:16:50;24.70;99.90
3919;DHT22;1974;48.670;8.994;2023-05-07T07:19:16;25.20;99.90
3919;DHT22;1974;48.670;8.994;2023-05-07T07:21:43;25.90;99.90
3919;DHT22;1974;48.670;8.994;2023-05-07T07:24:12;26.10;99.90
3919;DHT22;1974;48.670;8.994;2023-05-07T07:26:44;26.10;99.90
3919;DHT22;1974;48.670;8.994;2023-05-07T07:29:11;25.90;99.80
3919;DHT22;1974;48.670;8.994;2023-05-07T07:31:38;26.00;98.80
3919;DHT22;1974;48.670;8.994;2023-05-07T07:34:04;26.20;99.40
3919;DHT22;1974;48.670;8.994;2023-05-07T07:36:31;26.70;98.00
3919;DHT22;1974;48.670;8.994;2023-05-07T07:38:58;27.10;96.50
3919;DHT22;1974;48.670;8.994;2023-05-07T07:41:26;27.10;96.10
3919;DHT22;1974;48.670;8.994;2023-05-07T07:43:52;27.20;96.50
3919;DHT22;1974;48.670;8.994;2023-05-07T07:46:19;27.00;94.80
3919;DHT22;1974;48.670;8.994;2023-05-07T07:48:46;26.50;94.90
3919;DHT22;1974;48.670;8.994;2023-05-07T07:51:13;26.20;95.70
3919;DHT22;1974;48.670;8.994;2023-05-07T07:53:40;26.50;96.40
3919;DHT22;1974;48.670;8.994;2023-05-07T07:56:06;27.10;95.00
3919;DHT22;1974;48.670;8.994;2023-05-07T07:58:35;28.20;93.40
3919;DHT22;1974;48.670;8.994;2023-05-07T08:01:03;29.10;92.20
3919;DHT22;1974;48.670;8.994;2023-05-07T08:03:30;30.30;90.30
3919;DHT22;1974;48.670;8.994;2023-05-07T08:05:58;31.60;83.40
3919;DHT22;1974;48.670;8.994;2023-05-07T08:08:25;33.00;76.10
3919;DHT22;1974;48.670;8.994;2023-05-07T08:10:52;33.40;72.60
3919;DHT22;1974;48.670;8.994;2023-05-07T08:13:19;32.80;67.90
3919;DHT22;1974;48.670;8.994;2023-05-07T08:15:47;32.10;67.50
3919;DHT22;1974;48.670;8.994;2023-05-07T08:18:13;31.30;69.60
3919;DHT22;1974;48.670;8.994;2023-05-07T08:20:40;30.80;71.60
3919;DHT22;1974;48.670;8.994;2023-05-07T08:23:07;30.10;72.30
3919;DHT22;1974;48.670;8.994;2023-05-07T08:25:34;29.30;74.10
3919;DHT22;1974;48.670;8.994;2023-05-07T08:28:01;28.70;73.90
3919;DHT22;1974;48.670;8.994;2023-05-07T08:30:28;28.30;73.90
3919;DHT22;1974;48.670;8.994;2023-05-07T08:32:56;27.90;76.00
3919;DHT22;1974;48.670;8.994;2023-05-07T08:35:23;27.60;76.00
3919;DHT22;1974;48.670;8.994;2023-05-07T08:37:51;27.20;77.80
3919;DHT22;1974;48.670;8.994;2023-05-07T08:40:18;26.50;78.50
3919;DHT22;1974;48.670;8.994;2023-05-07T08:42:48;26.30;78.00
3919;DHT22;1974;48.670;8.994;2023-05-07T08:45:15;26.10;79.50
3919;DHT22;1974;48.670;8.994;2023-05-07T08:47:44;25.90;81.20
3919;DHT22;1974;48.670;8.994;2023-05-07T08:50:14;25.80;80.70
3919;DHT22;1974;48.670;8.994;2023-05-07T08:52:41;25.90;82.30
3919;DHT22;1974;48.670;8.994;2023-05-07T08:55:09;25.80;82.50
3919;DHT22;1974;48.670;8.994;2023-05-07T08:57:36;25.60;82.30
3919;DHT22;1974;48.670;8.994;2023-05-07T09:00:03;25.20;85.40
3919;DHT22;1974;48.670;8.994;2023-05-07T09:02:33;25.40;84.10
3919;DHT22;1974;48.670;8.994;2023-05-07T09:04:59;25.50;83.00
3919;DHT22;1974;48.670;8.994;2023-05-07T09:07:28;25.40;84.60
3919;DHT22;1974;48.670;8.994;2023-05-07T09:09:54;25.40;86.70
3919;DHT22;1974;48.670;8.994;2023-05-07T09:12:22;25.40;85.00
3919;DHT22;1974;48.670;8.994;2023-05-07T09:14:49;25.40;86.90
3919;DHT22;1974;48.670;8.994;2023-05-07T09:17:16;25.40;86.60
3919;DHT22;1974;48.670;8.994;2023-05-07T09:19:44;25.40;85.20
3919;DHT22;1974;48.670;8.994;2023-05-07T09:22:11;25.20;87.20
3919;DHT22;1974;48.670;8.994;2023-05-07T09:24:39;25.00;86.90
3919;DHT22;1974;48.670;8.994;2023-05-07T09:27:07;24.90;86.50
3919;DHT22;1974;48.670;8.994;2023-05-07T09:29:35;24.90;87.60
3919;DHT22;1974;48.670;8.994;2023-05-07T09:32:02;24.90;87.50
3919;DHT22;1974;48.670;8.994;2023-05-07T09:34:29;24.80;90.00
3919;DHT22;1974;48.670;8.994;2023-05-07T09:36:56;24.70;90.00
3919;DHT22;1974;48.670;8.994;2023-05-07T09:39:23;24.90;89.30
3919;DHT22;1974;48.670;8.994;2023-05-07T09:41:51;25.00;88.40
3919;DHT22;1974;48.670;8.994;2023-05-07T09:44:20;25.00;88.70
3919;DHT22;1974;48.670;8.994;2023-05-07T09:46:52;25.00;90.20
3919;DHT22;1974;48.670;8.994;2023-05-07T09:49:21;25.10;89.90
3919;DHT22;1974;48.670;8.994;2023-05-07T09:51:49;25.10;90.40
3919;DHT22;1974;48.670;8.994;2023-05-07T09:54:16;25.20;88.70
3919;DHT22;1974;48.670;8.994;2023-05-07T09:56:44;25.30;88.10
3919;DHT22;1974;48.670;8.994;2023-05-07T09:59:14;25.20;87.60
3919;DHT22;1974;48.670;8.994;2023-05-07T10:01:43;25.20;89.00
3919;DHT22;1974;48.670;8.994;2023-05-07T10:04:10;25.20;89.00
3919;DHT22;1974;48.670;8.994;2023-05-07T10:06:38;25.20;88.00
3919;DHT22;1974;48.670;8.994;2023-05-07T10:09:05;25.20;89.20
3919;DHT22;1974;48.670;8.994;2023-05-07T10:11:32;25.20;89.40
3919;DHT22;1974;48.670;8.994;2023-05-07T10:13:59;25.20;88.30
3919;DHT22;1974;48.670;8.994;2023-05-07T10:16:29;25.20;87.90
3919;DHT22;1974;48.670;8.994;2023-05-07T10:18:57;25.10;89.30
3919;DHT22;1974;48.670;8.994;2023-05-07T10:21:26;25.00;89.90
3919;DHT22;1974;48.670;8.994;2023-05-07T10:23:58;25.10;90.70
3919;DHT22;1974;48.670;8.994;2023-05-07T10:26:25;25.10;90.00
3919;DHT22;1974;48.670;8.994;2023-05-07T10:28:58;25.40;89.30
3919;DHT22;1974;48.670;8.994;2023-05-07T10:31:51;25.60;86.80
3919;DHT22;1974;48.670;8.994;2023-05-07T10:34:23;25.50;86.50
3919;DHT22;1974;48.670;8.994;2023-05-07T10:36:51;25.60;86.30
3919;DHT22;1974;48.670;8.994;2023-05-07T10:39:19;25.60;87.80
3919;DHT22;1974;48.670;8.994;2023-05-07T10:41:48;25.70;87.50
3919;DHT22;1974;48.670;8.994;2023-05-07T10:44:25;25.70;88.80
3919;DHT22;1974;48.670;8.994;2023-05-07T10:47:08;25.90;87.40
3919;DHT22;1974;48.670;8.994;2023-05-07T10:49:36;26.00;85.10
3919;DHT22;1974;48.670;8.994;2023-05-07T10:52:17;26.50;84.20
3919;DHT22;1974;48.670;8.994;2023-05-07T10:54:45;26.90;82.50
3919;DHT22;1974;48.670;8.994;2023-05-07T10:57:42;27.30;78.50
3919;DHT22;1974;48.670;8.994;2023-05-07T11:00:41;27.60;79.10
3919;DHT22;1974;48.670;8.994;2023-05-07T11:03:10;27.60;78.50
3919;DHT22;1974;48.670;8.994;2023-05-07T11:05:37;27.30;80.30
3919;DHT22;1974;48.670;8.994;2023-05-07T11:08:05;27.00;79.10
3919;DHT22;1974;48.670;8.994;2023-05-07T11:10:48;26.70;81.40
3919;DHT22;1974;48.670;8.994;2023-05-07T11:13:15;26.50;81.00
3919;DHT22;1974;48.670;8.994;2023-05-07T11:15:43;26.30;79.90
3919;DHT22;1974;48.670;8.994;2023-05-07T11:18:14;26.10;81.10
3919;DHT22;1974;48.670;8.994;2023-05-07T11:20:51;26.00;81.70
3919;DHT22;1974;48.670;8.994;2023-05-07T11:26:23;25.60;84.40
3919;DHT22;1974;48.670;8.994;2023-05-07T11:28:51;25.30;84.40
3919;DHT22;1974;48.670;8.994;2023-05-07T11:31:21;25.20;82.30
3919;DHT22;1974;48.670;8.994;2023-05-07T11:33:51;24.90;82.60
3919;DHT22;1974;48.670;8.994;2023-05-07T11:36:18;24.80;82.70
3919;DHT22;1974;48.670;8.994;2023-05-07T11:38:46;24.70;85.50
3919;DHT22;1974;48.670;8.994;2023-05-07T11:41:12;24.60;85.20
3919;DHT22;1974;48.670;8.994;2023-05-07T11:43:53;24.50;84.00
3919;DHT22;1974;48.670;8.994;2023-05-07T11:46:21;24.40;82.90
3919;DHT22;1974;48.670;8.994;2023-05-07T11:48:47;24.20;85.40
3919;DHT22;1974;48.670;8.994;2023-05-07T11:51:18;24.00;88.10
3919;DHT22;1974;48.670;8.994;2023-05-07T11:53:45;23.90;91.50
3919;DHT22;1974;48.670;8.994;2023-05-07T11:56:13;23.70;90.80
3919;DHT22;1974;48.670;8.994;2023-05-07T11:58:41;23.50;90.60
3919;DHT22;1974;48.670;8.994;2023-05-07T12:01:09;23.40;91.40
3919;DHT22;1974;48.670;8.994;2023-05-07T12:03:36;23.10;92.60
3919;DHT22;1974;48.670;8.994;2023-05-07T12:06:06;22.80;93.60
3919;DHT22;1974;48.670;8.994;2023-05-07T12:08:36;22.50;94.90
3919;DHT22;1974;48.670;8.994;2023-05-07T12:11:03;22.40;95.60
3919;DHT22;1974;48.670;8.994;2023-05-07T12:13:33;22.20;93.40
3919;DHT22;1974;48.670;8.994;2023-05-07T12:16:00;21.90;93.70
3919;DHT22;1974;48.670;8.994;2023-05-07T12:18:28;21.30;95.20
3919;DHT22;1974;48.670;8.994;2023-05-07T12:20:56;20.60;98.20
3919;DHT22;1974;48.670;8.994;2023-05-07T12:23:23;19.90;98.20
3919;DHT22;1974;48.670;8.994;2023-05-07T12:25:51;19.30;99.90
3919;DHT22;1974;48.670;8.994;2023-05-07T12:28:18;18.90;99.90
3919;DHT22;1974;48.670;8.994;2023-05-07T12:30:47;18.60;99.90
3919;DHT22;1974;48.670;8.994;2023-05-07T12:33:16;18.30;99.90
3919;DHT22;1974;48.670;8.994;2023-05-07T12:35:43;18.10;99.90
3919;DHT22;1974;48.670;8.994;2023-05-07T12:38:12;17.90;99.90
3919;DHT22;1974;48.670;8.994;2023-05-07T12:40:40;17.80;99.90
3919;DHT22;1974;48.670;8.994;2023-05-07T12:43:15;17.60;99.90
3919;DHT22;1974;48.670;8.994;2023-05-07T12:45:42;17.50;99.90
3919;DHT22;1974;48.670;8.994;2023-05-07T12:48:10;17.50;99.90
3919;DHT22;1974;48.670;8.994;2023-05-07T12:50:37;17.40;99.90
3919;DHT22;1974;48.670;8.994;2023-05-07T12:53:05;17.30;99.90
3919;DHT22;1974;48.670;8.994;2023-05-07T12:55:40;17.00;99.90
3919;DHT22;1974;48.670;8.994;2023-05-07T12:58:14;16.50;99.90
3919;DHT22;1974;48.670;8.994;2023-05-07T13:00:42;16.00;99.90
3919;DHT22;1974;48.670;8.994;2023-05-07T13:03:09;15.80;99.90
3919;DHT22;1974;48.670;8.994;2023-05-07T13:05:36;15.60;99.90
3919;DHT22;1974;48.670;8.994;2023-05-07T13:08:03;15.50;99.90
3919;DHT22;1974;48.670;8.994;2023-05-07T13:10:31;15.30;99.90
3919;DHT22;1974;48.670;8.994;2023-05-07T13:12:58;15.10;99.90
3919;DHT22;1974;48.670;8.994;2023-05-07T13:15:26;15.00;99.90
3919;DHT22;1974;48.670;8.994;2023-05-07T13:17:53;15.00;99.90
3919;DHT22;1974;48.670;8.994;2023-05-07T13:20:20;14.90;99.90
3919;DHT22;1974;48.670;8.994;2023-05-07T13:22:47;14.90;99.90
3919;DHT22;1974;48.670;8.994;2023-05-07T13:25:14;14.90;99.90
3919;DHT22;1974;48.670;8.994;2023-05-07T13:27:40;15.00;99.90
3919;DHT22;1974;48.670;8.994;2023-05-07T13:30:07;15.10;99.90
3919;DHT22;1974;48.670;8.994;2023-05-07T13:32:35;15.10;99.90
3919;DHT22;1974;48.670;8.994;2023-05-07T13:35:03;15.10;99.90
3919;DHT22;1974;48.670;8.994;2023-05-07T13:37:30;15.10;99.90
3919;DHT22;1974;48.670;8.994;2023-05-07T13:39:56;15.10;99.90
3919;DHT22;1974;48.670;8.994;2023-05-07T13:42:23;15.10;99.90
3919;DHT22;1974;48.670;8.994;2023-05-07T13:44:50;15.20;99.90
3919;DHT22;1974;48.670;8.994;2023-05-07T13:47:17;15.20;99.90
3919;DHT22;1974;48.670;8.994;2023-05-07T13:49:45;15.20;99.90
3919;DHT22;1974;48.670;8.994;2023-05-07T13:52:11;15.20;99.90
3919;DHT22;1974;48.670;8.994;2023-05-07T13:54:38;15.20;99.90
3919;DHT22;1974;48.670;8.994;2023-05-07T13:57:05;15.30;99.90
3919;DHT22;1974;48.670;8.994;2023-05-07T13:59:32;15.30;99.90
3919;DHT22;1974;48.670;8.994;2023-05-07T14:01:59;15.40;99.90
3919;DHT22;1974;48.670;8.994;2023-05-07T14:04:26;15.40;99.90
3919;DHT22;1974;48.670;8.994;2023-05-07T14:06:57;15.40;99.90
3919;DHT22;1974;48.670;8.994;2023-05-07T14:09:23;15.30;99.90
3919;DHT22;1974;48.670;8.994;2023-05-07T14:11:50;15.30;99.90
3919;DHT22;1974;48.670;8.994;2023-05-07T14:14:17;15.10;99.90
3919;DHT22;1974;48.670;8.994;2023-05-07T14:16:44;15.10;99.90
3919;DHT22;1974;48.670;8.994;2023-05-07T14:19:11;15.10;99.90
3919;DHT22;1974;48.670;8.994;2023-05-07T14:21:38;15.10;99.90
3919;DHT22;1974;48.670;8.994;2023-05-07T14:24:07;14.90;99.90
3919;DHT22;1974;48.670;8.994;2023-05-07T14:26:34;14.80;99.90
3919;DHT22;1974;48.670;8.994;2023-05-07T14:29:01;14.80;99.90
3919;DHT22;1974;48.670;8.994;2023-05-07T14:31:28;14.80;99.90
3919;DHT22;1974;48.670;8.994;2023-05-07T14:33:55;14.80;99.90
3919;DHT22;1974;48.670;8.994;2023-05-07T14:36:23;14.80;99.90
3919;DHT22;1974;48.670;8.994;2023-05-07T14:38:51;14.90;99.90
3919;DHT22;1974;48.670;8.994;2023-05-07T14:41:19;14.90;99.90
3919;DHT22;1974;48.670;8.994;2023-05-07T14:43:47;14.90;99.90
3919;DHT22;1974;48.670;8.994;2023-05-07T14:46:15;14.80;99.90
3919;DHT22;1974;48.670;8.994;2023-05-07T14:48:43;14.80;99.90
3919;DHT22;1974;48.670;8.994;2023-05-07T14:51:10;14.70;99.90
3919;DHT22;1974;48.670;8.994;2023-05-07T14:53:37;14.70;99.90
3919;DHT22;1974;48.670;8.994;2023-05-07T14:56:04;14.70;99.90
3919;DHT22;1974;48.670;8.994;2023-05-07T14:58:33;14.60;99.90
3919;DHT22;1974;48.670;8.994;2023-05-07T15:01:00;14.60;99.90
3919;DHT22;1974;48.670;8.994;2023-05-07T15:03:27;14.70;99.90
3919;DHT22;1974;48.670;8.994;2023-05-07T15:05:54;14.80;99.90
3919;DHT22;1974;48.670;8.994;2023-05-07T15:08:21;14.80;99.90
3919;DHT22;1974;48.670;8.994;2023-05-07T15:10:48;14.80;99.90
3919;DHT22;1974;48.670;8.994;2023-05-07T15:13:15;14.90;99.90
3919;DHT22;1974;48.670;8.994;2023-05-07T15:15:44;14.90;99.90
3919;DHT22;1974;48.670;8.994;2023-05-07T15:18:11;14.90;99.90
3919;DHT22;1974;48.670;8.994;2023-05-07T15:20:37;15.00;99.90
3919;DHT22;1974;48.670;8.994;2023-05-07T15:23:05;15.10;99.90
3919;DHT22;1974;48.670;8.994;2023-05-07T15:25:35;15.20;99.90
3919;DHT22;1974;48.670;8.994;2023-05-07T15:28:02;15.20;99.90
3919;DHT22;1974;48.670;8.994;2023-05-07T15:30:29;15.30;99.90
3919;DHT22;1974;48.670;8.994;2023-05-07T15:32:57;15.40;99.90
3919;DHT22;1974;48.670;8.994;2023-05-07T15:35:24;15.40;99.90
3919;DHT22;1974;48.670;8.994;2023-05-07T15:37:51;15.50;99.90
3919;DHT22;1974;48.670;8.994;2023-05-07T15:40:18;15.70;99.90
3919;DHT22;1974;48.670;8.994;2023-05-07T15:42:46;15.70;99.90
3919;DHT22;1974;48.670;8.994;2023-05-07T15:45:12;15.90;99.90
3919;DHT22;1974;48.670;8.994;2023-05-07T15:47:39;15.90;99.90
3919;DHT22;1974;48.670;8.994;2023-05-07T15:50:08;16.00;99.90
3919;DHT22;1974;48.670;8.994;2023-05-07T15:52:35;16.00;99.90
3919;DHT22;1974;48.670;8.994;2023-05-07T15:55:03;16.00;99.90
3919;DHT22;1974;48.670;8.994;2023-05-07T15:57:31;16.10;99.90
3919;DHT22;1974;48.670;8.994;2023-05-07T15:59:58;16.20;99.90
3919;DHT22;1974;48.670;8.994;2023-05-07T16:02:25;16.30;99.90
3919;DHT22;1974;48.670;8.994;2023-05-07T16:04:52;16.40;99.90
3919;DHT22;1974;48.670;8.994;2023-05-07T16:07:20;16.50;99.90
3919;DHT22;1974;48.670;8.994;2023-05-07T16:09:47;16.50;99.90